createdAt,value
2022-08-25T00:01:31.312Z,26.20
2022-08-25T00:04:01.701Z,26.20
2022-08-25T00:06:28.965Z,26.20
2022-08-25T00:08:59.729Z,26.20
2022-08-25T00:11:30.010Z,26.20
2022-08-25T00:14:00.557Z,26.20
2022-08-25T00:16:30.233Z,26.30
2022-08-25T00:18:59.629Z,26.30
2022-08-25T00:21:28.053Z,26.30
2022-08-25T00:23:54.986Z,26.20
2022-08-25T00:26:23.014Z,26.10
2022-08-25T00:28:50.077Z,26.10
2022-08-25T00:31:23.719Z,26.10
2022-08-25T00:34:07.510Z,26.10
2022-08-25T00:36:34.949Z,26.10
2022-08-25T00:39:02.111Z,26.20
2022-08-25T00:41:29.349Z,26.10
2022-08-25T00:43:59.297Z,26.10
2022-08-25T00:46:32.677Z,26.00
2022-08-25T00:49:07.078Z,26.00
2022-08-25T00:51:43.249Z,26.00
2022-08-25T00:54:16.442Z,26.00
2022-08-25T00:56:45.529Z,26.00
2022-08-25T00:59:13.872Z,26.00
2022-08-25T01:01:41.012Z,26.00
2022-08-25T01:04:08.008Z,26.10
2022-08-25T01:06:38.779Z,26.10
2022-08-25T01:09:07.459Z,26.10
2022-08-25T01:11:35.445Z,26.10
2022-08-25T01:14:06.545Z,26.10
2022-08-25T01:16:38.317Z,26.00
2022-08-25T01:19:07.444Z,26.00
2022-08-25T01:21:40.997Z,26.00
2022-08-25T01:24:09.969Z,26.10
2022-08-25T01:26:37.101Z,26.00
2022-08-25T01:29:22.569Z,26.00
2022-08-25T01:31:51.065Z,26.00
2022-08-25T01:34:19.677Z,26.00
2022-08-25T01:36:47.036Z,26.00
2022-08-25T01:39:14.938Z,26.00
2022-08-25T01:41:41.865Z,26.00
2022-08-25T01:44:14.122Z,25.90
2022-08-25T01:46:43.969Z,25.90
2022-08-25T01:49:11.013Z,25.90
2022-08-25T01:51:49.057Z,25.90
2022-08-25T01:54:16.017Z,25.90
2022-08-25T01:56:43.294Z,25.90
2022-08-25T01:59:10.499Z,25.90
2022-08-25T02:01:37.585Z,25.90
2022-08-25T02:04:04.656Z,25.90
2022-08-25T02:06:33.310Z,25.90
2022-08-25T02:09:05.138Z,25.90
2022-08-25T02:11:33.917Z,25.90
2022-08-25T02:14:01.225Z,25.90
2022-08-25T02:16:35.403Z,25.90
2022-08-25T02:19:04.481Z,25.90
2022-08-25T02:21:32.613Z,25.90
2022-08-25T02:24:00.186Z,25.90
2022-08-25T02:26:28.033Z,25.80
2022-08-25T02:28:54.953Z,25.80
2022-08-25T02:31:24.939Z,25.80
2022-08-25T02:33:53.014Z,25.80
2022-08-25T02:36:20.521Z,25.80
2022-08-25T02:38:47.646Z,25.80
2022-08-25T02:41:21.040Z,25.80
2022-08-25T02:43:49.214Z,25.70
2022-08-25T02:46:19.923Z,25.70
2022-08-25T02:48:47.939Z,25.70
2022-08-25T02:51:15.612Z,25.70
2022-08-25T02:53:46.067Z,25.70
2022-08-25T02:56:14.684Z,25.70
2022-08-25T02:58:42.710Z,25.70
2022-08-25T03:01:12.074Z,25.60
2022-08-25T03:03:44.423Z,25.60
2022-08-25T03:06:13.930Z,25.60
2022-08-25T03:08:42.221Z,25.60
2022-08-25T03:11:09.897Z,25.60
2022-08-25T03:13:37.349Z,25.60
2022-08-25T03:16:10.863Z,25.60
2022-08-25T03:18:39.946Z,25.60
2022-08-25T03:21:07.917Z,25.50
2022-08-25T03:23:35.157Z,25.50
2022-08-25T03:26:20.470Z,25.50
2022-08-25T03:28:47.383Z,25.50
2022-08-25T03:31:14.824Z,25.50
2022-08-25T03:33:42.996Z,25.50
2022-08-25T03:36:12.319Z,25.50
2022-08-25T03:38:39.898Z,25.50
2022-08-25T03:41:15.150Z,25.50
2022-08-25T03:43:42.585Z,25.50
2022-08-25T03:46:10.425Z,25.40
2022-08-25T03:48:37.318Z,25.40
2022-08-25T03:51:04.575Z,25.40
2022-08-25T03:53:31.462Z,25.40
2022-08-25T03:55:58.658Z,25.40
2022-08-25T03:58:26.834Z,25.30
2022-08-25T04:00:54.100Z,25.30
2022-08-25T04:03:21.211Z,25.30
2022-08-25T04:05:48.172Z,25.30
2022-08-25T04:08:15.234Z,25.30
2022-08-25T04:10:42.311Z,25.30
2022-08-25T04:13:09.323Z,25.30
2022-08-25T04:15:36.802Z,25.30
2022-08-25T04:18:04.116Z,25.30
2022-08-25T04:20:31.171Z,25.30
2022-08-25T04:23:01.400Z,25.30
2022-08-25T04:25:29.174Z,25.30
2022-08-25T04:27:56.420Z,25.30
2022-08-25T04:30:23.567Z,25.40
2022-08-25T04:32:50.446Z,25.40
2022-08-25T04:35:17.489Z,25.40
2022-08-25T04:37:45.231Z,25.40
2022-08-25T04:40:12.776Z,25.40
2022-08-25T04:42:40.098Z,25.40
2022-08-25T04:45:07.536Z,25.40
2022-08-25T04:47:39.014Z,25.40
2022-08-25T04:50:07.503Z,25.50
2022-08-25T04:52:34.515Z,25.50
2022-08-25T04:55:01.707Z,25.50
2022-08-25T04:57:28.930Z,25.50
2022-08-25T04:59:55.823Z,25.50
2022-08-25T05:02:25.273Z,25.50
2022-08-25T05:04:52.640Z,25.50
2022-08-25T05:07:19.803Z,25.50
2022-08-25T05:09:46.863Z,25.60
2022-08-25T05:12:13.967Z,25.60
2022-08-25T05:14:40.975Z,25.60
2022-08-25T05:17:07.999Z,25.60
2022-08-25T05:19:36.239Z,25.60
2022-08-25T05:22:03.445Z,25.60
2022-08-25T05:24:30.471Z,25.60
2022-08-25T05:26:58.811Z,25.70
2022-08-25T05:29:26.063Z,25.70
2022-08-25T05:31:54.158Z,25.70
2022-08-25T05:34:21.768Z,25.80
2022-08-25T05:36:49.217Z,25.80
2022-08-25T05:39:16.271Z,25.80
2022-08-25T05:41:43.348Z,25.80
2022-08-25T05:44:10.776Z,25.80
2022-08-25T05:46:37.660Z,25.80
2022-08-25T05:49:04.605Z,25.80
2022-08-25T05:51:31.816Z,25.80
2022-08-25T05:53:58.749Z,25.80
2022-08-25T05:56:25.692Z,25.80
2022-08-25T05:58:52.608Z,25.90
2022-08-25T06:01:45.956Z,26.00
2022-08-25T06:04:14.140Z,26.00
2022-08-25T06:06:41.628Z,26.10
2022-08-25T06:09:09.726Z,26.10
2022-08-25T06:11:41.081Z,26.20
2022-08-25T06:14:09.801Z,26.30
2022-08-25T06:16:38.578Z,26.30
2022-08-25T06:19:06.608Z,26.40
2022-08-25T06:21:33.644Z,26.40
2022-08-25T06:24:01.854Z,26.40
2022-08-25T06:26:28.925Z,26.50
2022-08-25T06:28:55.799Z,26.50
2022-08-25T06:31:22.750Z,26.60
2022-08-25T06:33:50.112Z,26.70
2022-08-25T06:36:17.159Z,26.70
2022-08-25T06:38:44.117Z,26.80
2022-08-25T06:41:11.052Z,26.80
2022-08-25T06:43:42.575Z,26.80
2022-08-25T06:46:20.520Z,26.90
2022-08-25T06:48:48.107Z,26.90
2022-08-25T06:51:18.427Z,26.90
2022-08-25T06:53:47.881Z,26.90
2022-08-25T06:56:16.220Z,27.00
2022-08-25T06:58:43.473Z,27.00
2022-08-25T07:01:20.127Z,27.10
2022-08-25T07:03:48.479Z,27.10
2022-08-25T07:06:16.559Z,27.10
2022-08-25T07:08:46.639Z,27.20
2022-08-25T07:11:17.656Z,27.30
2022-08-25T07:13:45.961Z,27.40
2022-08-25T07:16:17.731Z,27.40
2022-08-25T07:18:46.349Z,27.50
2022-08-25T07:21:14.797Z,27.60
2022-08-25T07:23:42.545Z,27.60
2022-08-25T07:26:35.732Z,27.60
2022-08-25T07:28:59.986Z,27.70
2022-08-25T07:31:29.531Z,27.70
2022-08-25T07:34:16.513Z,27.80
2022-08-25T07:36:45.048Z,27.90
2022-08-25T07:39:13.003Z,27.90
2022-08-25T07:41:42.164Z,28.00
2022-08-25T07:44:11.413Z,28.10
2022-08-25T07:46:39.507Z,28.10
2022-08-25T07:49:16.794Z,28.10
2022-08-25T07:52:03.590Z,28.10
2022-08-25T07:54:33.972Z,28.20
2022-08-25T07:57:06.319Z,28.20
2022-08-25T07:59:39.585Z,28.30
2022-08-25T08:02:18.215Z,28.30
2022-08-25T08:04:50.504Z,28.30
2022-08-25T08:07:41.144Z,28.30
2022-08-25T08:10:42.201Z,28.30
2022-08-25T08:13:00.148Z,28.30
2022-08-25T08:15:29.827Z,28.20
2022-08-25T08:17:58.114Z,28.20
2022-08-25T08:20:26.824Z,28.20
2022-08-25T08:22:53.922Z,28.10
2022-08-25T08:25:21.327Z,28.20
2022-08-25T08:27:55.280Z,28.20
2022-08-25T08:30:26.008Z,28.20
2022-08-25T08:33:11.583Z,28.20
2022-08-25T08:35:40.173Z,28.20
2022-08-25T08:38:14.531Z,28.20
2022-08-25T08:41:40.061Z,28.20
2022-08-25T08:44:22.409Z,28.30
2022-08-25T08:47:08.995Z,28.30
2022-08-25T08:49:57.455Z,28.30
2022-08-25T08:52:43.541Z,28.30
2022-08-25T08:55:54.838Z,28.30
2022-08-25T08:58:28.964Z,28.30
2022-08-25T09:01:02.297Z,28.30
2022-08-25T09:03:41.224Z,28.30
2022-08-25T09:06:21.747Z,28.40
2022-08-25T09:08:49.200Z,28.40
2022-08-25T09:11:33.865Z,28.40
2022-08-25T09:14:10.980Z,28.50
2022-08-25T09:16:55.521Z,28.60
2022-08-25T09:19:23.491Z,28.60
2022-08-25T09:22:36.017Z,28.60
2022-08-25T09:25:29.574Z,28.80
2022-08-25T09:28:26.036Z,28.80
2022-08-25T09:31:01.271Z,28.80
2022-08-25T09:33:31.496Z,28.90
2022-08-25T09:36:04.508Z,28.90
2022-08-25T09:38:33.432Z,29.00
2022-08-25T09:41:02.016Z,29.00
2022-08-25T09:43:42.876Z,29.00
2022-08-25T09:46:23.666Z,29.00
2022-08-25T09:48:59.592Z,29.00
2022-08-25T09:51:38.183Z,29.10
2022-08-25T09:54:13.227Z,29.30
2022-08-25T09:56:58.764Z,29.40
2022-08-25T09:59:35.754Z,29.50
2022-08-25T10:02:27.888Z,29.60
2022-08-25T10:04:55.243Z,29.60
2022-08-25T10:07:38.713Z,29.60
2022-08-25T10:10:18.490Z,29.50
2022-08-25T10:12:51.551Z,29.50
2022-08-25T10:15:29.681Z,29.50
2022-08-25T10:18:17.725Z,29.50
2022-08-25T10:20:50.920Z,29.60
2022-08-25T10:23:17.977Z,29.70
2022-08-25T10:25:59.010Z,29.70
2022-08-25T10:28:43.500Z,29.80
2022-08-25T10:31:21.223Z,29.90
2022-08-25T10:33:59.349Z,29.90
2022-08-25T10:36:57.744Z,29.90
2022-08-25T10:39:40.469Z,29.90
2022-08-25T10:42:36.704Z,29.90
2022-08-25T10:45:45.141Z,30.00
2022-08-25T10:48:23.461Z,30.00
2022-08-25T10:51:01.234Z,30.00
2022-08-25T10:53:34.797Z,30.10
2022-08-25T10:56:21.120Z,30.10
2022-08-25T10:58:54.456Z,30.20
2022-08-25T11:01:43.975Z,30.20
2022-08-25T11:04:14.364Z,30.30
2022-08-25T11:06:54.788Z,30.30
2022-08-25T11:09:30.568Z,30.40
2022-08-25T11:12:14.392Z,30.40
2022-08-25T11:14:54.342Z,30.40
2022-08-25T11:17:26.589Z,30.30
2022-08-25T11:20:01.669Z,30.40
2022-08-25T11:22:46.392Z,30.40
2022-08-25T11:25:25.745Z,30.50
2022-08-25T11:28:10.990Z,30.50
2022-08-25T11:30:38.616Z,30.50
2022-08-25T11:33:07.705Z,30.50
2022-08-25T11:35:46.877Z,30.50
2022-08-25T11:38:21.189Z,30.60
2022-08-25T11:41:42.582Z,30.50
2022-08-25T11:44:20.705Z,30.50
2022-08-25T11:47:00.481Z,30.50
2022-08-25T11:49:37.604Z,30.60
2022-08-25T11:52:30.797Z,30.60
2022-08-25T11:55:11.013Z,30.80
2022-08-25T11:57:39.021Z,30.90
2022-08-25T12:00:15.397Z,30.90
2022-08-25T12:02:47.705Z,31.00
2022-08-25T12:05:22.163Z,31.00
2022-08-25T12:08:13.371Z,30.90
2022-08-25T12:11:07.270Z,30.90
2022-08-25T12:13:49.596Z,30.90
2022-08-25T12:16:35.698Z,31.10
2022-08-25T12:19:36.682Z,31.10
2022-08-25T12:22:05.137Z,31.00
2022-08-25T12:24:56.365Z,31.10
2022-08-25T12:27:36.698Z,31.10
2022-08-25T12:30:18.414Z,31.20
2022-08-25T12:32:54.343Z,31.30
2022-08-25T12:35:41.880Z,31.30
2022-08-25T12:38:16.662Z,31.30
2022-08-25T12:40:43.858Z,31.30
2022-08-25T12:43:24.922Z,31.30
2022-08-25T12:45:54.255Z,31.30
2022-08-25T12:48:28.083Z,31.40
2022-08-25T12:51:04.241Z,31.40
2022-08-25T12:53:51.814Z,31.40
2022-08-25T12:56:39.536Z,31.40
2022-08-25T12:59:20.229Z,31.30
2022-08-25T13:02:16.064Z,31.30
2022-08-25T13:05:01.390Z,31.40
2022-08-25T13:07:48.330Z,31.30
2022-08-25T13:10:21.125Z,31.30
2022-08-25T13:13:45.418Z,31.40
2022-08-25T13:16:29.071Z,31.40
2022-08-25T13:18:59.602Z,31.40
2022-08-25T13:21:37.606Z,31.40
2022-08-25T13:24:20.978Z,31.40
2022-08-25T13:26:52.598Z,31.50
2022-08-25T13:29:26.046Z,31.50
2022-08-25T13:31:57.715Z,31.60
2022-08-25T13:34:34.429Z,31.60
2022-08-25T13:37:32.270Z,31.60
2022-08-25T13:40:12.826Z,31.60
2022-08-25T13:42:43.211Z,31.60
2022-08-25T13:45:23.899Z,31.60
2022-08-25T13:47:56.076Z,31.60
2022-08-25T13:50:26.477Z,31.70
2022-08-25T13:53:06.525Z,31.70
2022-08-25T13:55:51.481Z,31.70
2022-08-25T13:58:39.487Z,31.70
2022-08-25T14:01:47.259Z,31.70
2022-08-25T14:04:27.366Z,31.80
2022-08-25T14:07:23.163Z,31.80
2022-08-25T14:09:53.291Z,32.00
2022-08-25T14:12:47.555Z,32.00
2022-08-25T14:15:17.414Z,32.00
2022-08-25T14:17:59.481Z,32.10
2022-08-25T14:20:29.290Z,32.00
2022-08-25T14:22:59.412Z,32.00
2022-08-25T14:25:30.366Z,32.00
2022-08-25T14:28:08.246Z,32.00
2022-08-25T14:30:39.955Z,32.00
2022-08-25T14:33:11.848Z,31.90
2022-08-25T14:35:38.764Z,31.80
2022-08-25T14:38:11.021Z,31.90
2022-08-25T14:40:39.659Z,32.00
2022-08-25T14:43:09.663Z,32.00
2022-08-25T14:45:40.110Z,32.00
2022-08-25T14:48:10.820Z,32.00
2022-08-25T14:50:41.876Z,31.90
2022-08-25T14:53:10.427Z,31.90
2022-08-25T14:55:38.907Z,31.90
2022-08-25T14:58:07.339Z,31.80
2022-08-25T15:00:41.909Z,31.90
2022-08-25T15:03:31.769Z,31.90
2022-08-25T15:06:00.531Z,31.90
2022-08-25T15:08:46.924Z,31.90
2022-08-25T15:11:14.944Z,31.80
2022-08-25T15:13:49.001Z,31.80
2022-08-25T15:16:34.036Z,31.90
2022-08-25T15:19:07.233Z,31.80
2022-08-25T15:21:35.847Z,31.80
2022-08-25T15:24:04.711Z,31.70
2022-08-25T15:26:35.267Z,31.70
2022-08-25T15:29:03.767Z,31.70
2022-08-25T15:31:30.736Z,31.70
2022-08-25T15:33:57.699Z,31.70
2022-08-25T15:36:26.156Z,31.70
2022-08-25T15:38:53.321Z,31.70
2022-08-25T15:41:23.121Z,31.70
2022-08-25T15:43:54.708Z,31.70
2022-08-25T15:46:25.033Z,31.70
2022-08-25T15:48:52.151Z,31.70
2022-08-25T15:51:19.080Z,31.60
2022-08-25T15:53:46.455Z,31.60
2022-08-25T15:56:16.043Z,31.60
2022-08-25T15:58:53.852Z,31.60
2022-08-25T16:01:24.865Z,31.60
2022-08-25T16:03:52.471Z,31.60
2022-08-25T16:06:19.724Z,31.60
2022-08-25T16:08:47.655Z,31.60
2022-08-25T16:11:28.260Z,31.50
2022-08-25T16:13:57.380Z,31.50
2022-08-25T16:16:26.475Z,31.50
2022-08-25T16:18:53.807Z,31.50
2022-08-25T16:21:29.153Z,31.50
2022-08-25T16:24:01.919Z,31.50
2022-08-25T16:26:31.411Z,31.40
2022-08-25T16:28:58.512Z,31.40
2022-08-25T16:31:26.135Z,31.40
2022-08-25T16:33:56.102Z,31.40
2022-08-25T16:36:27.209Z,31.40
2022-08-25T16:38:57.321Z,31.40
2022-08-25T16:41:31.532Z,31.30
2022-08-25T16:43:58.722Z,31.30
2022-08-25T16:46:25.802Z,31.20
2022-08-25T16:48:53.456Z,31.20
2022-08-25T16:51:22.124Z,31.20
2022-08-25T16:54:08.604Z,31.20
2022-08-25T16:56:36.973Z,31.10
2022-08-25T16:59:06.277Z,31.10
2022-08-25T17:01:35.514Z,31.10
2022-08-25T17:04:03.468Z,31.00
2022-08-25T17:06:36.268Z,31.00
2022-08-25T17:09:03.740Z,31.00
2022-08-25T17:11:35.150Z,31.00
2022-08-25T17:14:04.657Z,31.00
2022-08-25T17:16:38.086Z,30.90
2022-08-25T17:19:11.678Z,30.90
2022-08-25T17:21:41.216Z,30.90
2022-08-25T17:24:12.668Z,30.80
2022-08-25T17:26:42.261Z,30.80
2022-08-25T17:29:09.628Z,30.80
2022-08-25T17:31:39.845Z,30.70
2022-08-25T17:34:10.651Z,30.70
2022-08-25T17:36:38.373Z,30.70
2022-08-25T17:39:08.715Z,30.60
2022-08-25T17:41:37.835Z,30.60
2022-08-25T17:44:05.317Z,30.50
2022-08-25T17:46:32.966Z,30.50
2022-08-25T17:49:00.232Z,30.40
2022-08-25T17:51:27.271Z,30.40
2022-08-25T17:53:58.835Z,30.30
2022-08-25T17:56:27.394Z,30.30
2022-08-25T17:58:55.965Z,30.20
2022-08-25T18:01:29.196Z,30.20
2022-08-25T18:03:57.531Z,30.20
2022-08-25T18:06:25.313Z,30.10
2022-08-25T18:08:56.373Z,30.10
2022-08-25T18:11:26.030Z,30.00
2022-08-25T18:13:53.852Z,30.00
2022-08-25T18:16:21.569Z,29.90
2022-08-25T18:18:48.699Z,29.90
2022-08-25T18:21:18.017Z,29.90
2022-08-25T18:23:45.801Z,29.80
2022-08-25T18:26:15.346Z,29.80
2022-08-25T18:28:43.893Z,29.80
2022-08-25T18:31:13.154Z,29.70
2022-08-25T18:33:42.220Z,29.70
2022-08-25T18:36:09.855Z,29.60
2022-08-25T18:38:56.593Z,29.60
2022-08-25T18:41:25.860Z,29.60
2022-08-25T18:43:53.168Z,29.50
2022-08-25T18:46:22.669Z,29.50
2022-08-25T18:48:53.708Z,29.40
2022-08-25T18:51:23.225Z,29.40
2022-08-25T18:53:54.461Z,29.30
2022-08-25T18:56:26.701Z,29.30
2022-08-25T18:58:53.530Z,29.30
2022-08-25T19:01:21.360Z,29.20
2022-08-25T19:03:48.836Z,29.20
2022-08-25T19:06:16.920Z,29.10
2022-08-25T19:08:45.224Z,29.10
2022-08-25T19:11:12.772Z,29.10
2022-08-25T19:13:40.345Z,29.10
2022-08-25T19:16:30.791Z,29.10
2022-08-25T19:18:57.719Z,29.00
2022-08-25T19:21:25.299Z,29.00
2022-08-25T19:23:53.154Z,29.00
2022-08-25T19:26:20.923Z,28.90
2022-08-25T19:28:49.347Z,28.80
2022-08-25T19:31:27.022Z,28.90
2022-08-25T19:33:55.813Z,28.80
2022-08-25T19:36:28.014Z,28.80
2022-08-25T19:38:58.288Z,28.80
2022-08-25T19:41:27.702Z,28.70
2022-08-25T19:43:56.147Z,28.70
2022-08-25T19:46:37.906Z,28.70
2022-08-25T19:49:10.113Z,28.70
2022-08-25T19:51:47.716Z,28.60
2022-08-25T19:54:25.401Z,28.60
2022-08-25T19:56:55.327Z,28.50
2022-08-25T19:59:42.349Z,28.50
2022-08-25T20:02:15.759Z,28.50
2022-08-25T20:04:49.211Z,28.40
2022-08-25T20:07:19.007Z,28.30
2022-08-25T20:09:46.466Z,28.30
2022-08-25T20:14:47.168Z,28.20
2022-08-25T20:17:24.813Z,28.20
2022-08-25T20:19:55.728Z,28.20
2022-08-25T20:22:26.126Z,28.10
2022-08-25T20:25:13.385Z,28.10
2022-08-25T20:27:46.793Z,28.10
2022-08-25T20:30:22.218Z,28.00
2022-08-25T20:32:50.798Z,28.00
2022-08-25T20:35:18.721Z,28.00
2022-08-25T20:37:47.360Z,27.90
2022-08-25T20:40:18.237Z,27.90
2022-08-25T20:42:52.178Z,27.90
2022-08-25T20:45:24.169Z,27.90
2022-08-25T20:47:51.341Z,27.80
2022-08-25T20:50:18.490Z,27.70
2022-08-25T20:52:45.435Z,27.70
2022-08-25T20:55:12.470Z,27.70
2022-08-25T20:57:40.422Z,27.60
2022-08-25T21:00:09.598Z,27.60
2022-08-25T21:02:37.011Z,27.50
2022-08-25T21:05:04.762Z,27.50
2022-08-25T21:07:31.718Z,27.50
2022-08-25T21:10:05.494Z,27.50
2022-08-25T21:12:32.354Z,27.40
2022-08-25T21:14:59.261Z,27.40
2022-08-25T21:17:26.289Z,27.40
2022-08-25T21:19:53.258Z,27.30
2022-08-25T21:22:20.681Z,27.30
2022-08-25T21:24:47.537Z,27.20
2022-08-25T21:27:14.565Z,27.20
2022-08-25T21:29:44.819Z,27.20
2022-08-25T21:32:22.260Z,27.20
2022-08-25T21:34:56.414Z,27.10
2022-08-25T21:37:24.466Z,27.10
2022-08-25T21:39:52.306Z,27.10
2022-08-25T21:42:22.404Z,27.10
2022-08-25T21:44:50.558Z,27.00
2022-08-25T21:47:21.141Z,27.00
2022-08-25T21:49:49.060Z,27.00
2022-08-25T21:52:16.089Z,26.90
2022-08-25T21:54:44.749Z,26.90
2022-08-25T21:57:11.598Z,26.80
2022-08-25T21:59:43.439Z,26.80
2022-08-25T22:02:12.487Z,26.80
2022-08-25T22:04:40.374Z,26.70
2022-08-25T22:07:08.781Z,26.70
2022-08-25T22:09:35.731Z,26.70
2022-08-25T22:12:03.819Z,26.70
2022-08-25T22:14:31.137Z,26.70
2022-08-25T22:16:58.214Z,26.70
2022-08-25T22:19:26.393Z,26.70
2022-08-25T22:21:53.958Z,26.70
2022-08-25T22:24:21.157Z,26.70
2022-08-25T22:26:49.078Z,26.70
2022-08-25T22:29:25.843Z,26.70
2022-08-25T22:32:00.789Z,26.60
2022-08-25T22:34:33.078Z,26.60
2022-08-25T22:37:04.829Z,26.60
2022-08-25T22:39:34.248Z,26.60
2022-08-25T22:42:02.885Z,26.60
2022-08-25T22:44:30.215Z,26.50
2022-08-25T22:46:57.048Z,26.50
2022-08-25T22:49:24.041Z,26.50
2022-08-25T22:51:51.122Z,26.40
2022-08-25T22:54:21.917Z,26.40
2022-08-25T22:56:48.741Z,26.40
2022-08-25T22:59:15.713Z,26.40
2022-08-25T23:01:44.141Z,26.30
2022-08-25T23:04:11.684Z,26.30
2022-08-25T23:06:40.127Z,26.20
2022-08-25T23:09:08.842Z,26.20
2022-08-25T23:11:38.429Z,26.20
2022-08-25T23:14:08.290Z,26.10
2022-08-25T23:16:35.238Z,26.10
2022-08-25T23:19:02.279Z,26.10
2022-08-25T23:21:48.453Z,26.00
2022-08-25T23:24:29.151Z,26.00
2022-08-25T23:27:01.616Z,25.90
2022-08-25T23:29:29.910Z,25.90
2022-08-25T23:31:58.251Z,25.90
2022-08-25T23:34:26.838Z,25.80
2022-08-25T23:36:55.942Z,25.80
2022-08-25T23:39:23.064Z,25.80
2022-08-25T23:41:51.009Z,25.80
2022-08-25T23:44:19.176Z,25.80
2022-08-25T23:46:47.852Z,25.80
2022-08-25T23:49:18.700Z,25.70
2022-08-25T23:51:47.745Z,25.70
2022-08-25T23:54:16.332Z,25.70
2022-08-25T23:56:44.887Z,25.70
2022-08-25T23:59:18.939Z,25.60
